sensor_id;sensor_type;location;lat;lon;timestamp;P1;durP1;ratioP1;P2;durP2;ratioP2
15970;SDS011;59785;52.582;13.892;2022-12-07T00:01:16;12.80;;;8.57;;
15970;SDS011;59785;52.582;13.892;2022-12-07T00:03:45;14.50;;;9.00;;
15970;SDS011;59785;52.582;13.892;2022-12-07T00:06:13;13.48;;;8.10;;
15970;SDS011;59785;52.582;13.892;2022-12-07T00:08:41;13.65;;;9.13;;
15970;SDS011;59785;52.582;13.892;2022-12-07T00:11:11;15.05;;;9.10;;
15970;SDS011;59785;52.582;13.892;2022-12-07T00:13:39;15.10;;;9.38;;
15970;SDS011;59785;52.582;13.892;2022-12-07T00:16:10;11.95;;;7.93;;
15970;SDS011;59785;52.582;13.892;2022-12-07T00:18:41;12.60;;;8.10;;
15970;SDS011;59785;52.582;13.892;2022-12-07T00:21:12;12.13;;;7.38;;
15970;SDS011;59785;52.582;13.892;2022-12-07T00:23:40;9.80;;;7.05;;
15970;SDS011;59785;52.582;13.892;2022-12-07T00:26:11;12.15;;;7.30;;
15970;SDS011;59785;52.582;13.892;2022-12-07T00:28:44;12.15;;;7.05;;
15970;SDS011;59785;52.582;13.892;2022-12-07T00:31:12;10.23;;;7.28;;
15970;SDS011;59785;52.582;13.892;2022-12-07T00:33:39;9.98;;;7.07;;
15970;SDS011;59785;52.582;13.892;2022-12-07T00:36:06;8.55;;;7.68;;
15970;SDS011;59785;52.582;13.892;2022-12-07T00:38:35;11.15;;;7.25;;
15970;SDS011;59785;52.582;13.892;2022-12-07T00:41:03;11.77;;;7.03;;
15970;SDS011;59785;52.582;13.892;2022-12-07T00:43:30;12.68;;;7.43;;
15970;SDS011;59785;52.582;13.892;2022-12-07T00:45:57;11.70;;;7.35;;
15970;SDS011;59785;52.582;13.892;2022-12-07T00:48:24;10.88;;;7.20;;
15970;SDS011;59785;52.582;13.892;2022-12-07T00:50:51;11.65;;;7.07;;
15970;SDS011;59785;52.582;13.892;2022-12-07T00:53:17;13.43;;;7.43;;
15970;SDS011;59785;52.582;13.892;2022-12-07T00:55:44;14.68;;;8.82;;
15970;SDS011;59785;52.582;13.892;2022-12-07T00:58:11;14.65;;;8.68;;
15970;SDS011;59785;52.582;13.892;2022-12-07T01:00:38;17.65;;;9.82;;
15970;SDS011;59785;52.582;13.892;2022-12-07T01:03:06;18.08;;;10.13;;
15970;SDS011;59785;52.582;13.892;2022-12-07T01:05:33;15.98;;;9.98;;
15970;SDS011;59785;52.582;13.892;2022-12-07T01:08:00;16.45;;;9.30;;
15970;SDS011;59785;52.582;13.892;2022-12-07T01:10:27;19.13;;;10.52;;
15970;SDS011;59785;52.582;13.892;2022-12-07T01:12:54;18.48;;;10.02;;
15970;SDS011;59785;52.582;13.892;2022-12-07T01:15:20;21.17;;;11.23;;
15970;SDS011;59785;52.582;13.892;2022-12-07T01:17:46;20.65;;;11.35;;
15970;SDS011;59785;52.582;13.892;2022-12-07T01:20:12;21.73;;;11.20;;
15970;SDS011;59785;52.582;13.892;2022-12-07T01:22:42;20.45;;;10.80;;
15970;SDS011;59785;52.582;13.892;2022-12-07T01:25:09;21.40;;;10.93;;
15970;SDS011;59785;52.582;13.892;2022-12-07T01:27:37;19.17;;;10.43;;
15970;SDS011;59785;52.582;13.892;2022-12-07T01:30:04;21.40;;;10.23;;
15970;SDS011;59785;52.582;13.892;2022-12-07T01:32:31;19.65;;;10.48;;
15970;SDS011;59785;52.582;13.892;2022-12-07T01:34:58;17.33;;;9.43;;
15970;SDS011;59785;52.582;13.892;2022-12-07T01:37:24;16.92;;;8.80;;
15970;SDS011;59785;52.582;13.892;2022-12-07T01:39:50;18.77;;;10.43;;
15970;SDS011;59785;52.582;13.892;2022-12-07T01:42:17;21.45;;;10.80;;
15970;SDS011;59785;52.582;13.892;2022-12-07T01:47:46;18.13;;;9.95;;
15970;SDS011;59785;52.582;13.892;2022-12-07T01:50:16;18.75;;;10.48;;
15970;SDS011;59785;52.582;13.892;2022-12-07T01:52:42;18.80;;;10.27;;
15970;SDS011;59785;52.582;13.892;2022-12-07T01:55:12;19.15;;;10.55;;
15970;SDS011;59785;52.582;13.892;2022-12-07T01:57:45;19.02;;;10.13;;
15970;SDS011;59785;52.582;13.892;2022-12-07T02:00:14;18.05;;;10.32;;
15970;SDS011;59785;52.582;13.892;2022-12-07T02:02:48;19.65;;;10.57;;
15970;SDS011;59785;52.582;13.892;2022-12-07T02:05:21;20.55;;;10.35;;
15970;SDS011;59785;52.582;13.892;2022-12-07T02:07:50;19.38;;;10.98;;
15970;SDS011;59785;52.582;13.892;2022-12-07T02:10:24;18.35;;;9.85;;
15970;SDS011;59785;52.582;13.892;2022-12-07T02:12:54;21.08;;;11.32;;
15970;SDS011;59785;52.582;13.892;2022-12-07T02:15:26;20.20;;;10.15;;
15970;SDS011;59785;52.582;13.892;2022-12-07T02:18:07;19.92;;;10.27;;
15970;SDS011;59785;52.582;13.892;2022-12-07T02:20:43;19.80;;;10.23;;
15970;SDS011;59785;52.582;13.892;2022-12-07T02:23:24;17.80;;;10.55;;
15970;SDS011;59785;52.582;13.892;2022-12-07T02:26:18;18.02;;;10.68;;
15970;SDS011;59785;52.582;13.892;2022-12-07T02:29:13;21.42;;;11.20;;
15970;SDS011;59785;52.582;13.892;2022-12-07T02:31:55;19.05;;;10.32;;
15970;SDS011;59785;52.582;13.892;2022-12-07T02:37:10;19.65;;;11.15;;
15970;SDS011;59785;52.582;13.892;2022-12-07T02:39:47;19.42;;;10.02;;
15970;SDS011;59785;52.582;13.892;2022-12-07T02:42:21;19.35;;;10.45;;
15970;SDS011;59785;52.582;13.892;2022-12-07T02:44:52;21.55;;;10.70;;
15970;SDS011;59785;52.582;13.892;2022-12-07T02:47:19;23.35;;;11.50;;
15970;SDS011;59785;52.582;13.892;2022-12-07T02:49:48;17.73;;;10.85;;
15970;SDS011;59785;52.582;13.892;2022-12-07T02:52:15;18.77;;;10.57;;
15970;SDS011;59785;52.582;13.892;2022-12-07T02:54:42;16.02;;;9.75;;
15970;SDS011;59785;52.582;13.892;2022-12-07T03:02:36;18.77;;;10.00;;
15970;SDS011;59785;52.582;13.892;2022-12-07T03:08:23;17.85;;;9.77;;
15970;SDS011;59785;52.582;13.892;2022-12-07T03:11:05;17.85;;;10.60;;
15970;SDS011;59785;52.582;13.892;2022-12-07T03:13:37;19.73;;;10.90;;
15970;SDS011;59785;52.582;13.892;2022-12-07T03:16:09;18.77;;;10.32;;
15970;SDS011;59785;52.582;13.892;2022-12-07T03:18:46;19.80;;;10.25;;
15970;SDS011;59785;52.582;13.892;2022-12-07T03:21:17;20.02;;;10.73;;
15970;SDS011;59785;52.582;13.892;2022-12-07T03:23:49;17.98;;;10.15;;
15970;SDS011;59785;52.582;13.892;2022-12-07T03:26:19;18.92;;;9.98;;
15970;SDS011;59785;52.582;13.892;2022-12-07T03:28:51;18.23;;;10.70;;
15970;SDS011;59785;52.582;13.892;2022-12-07T03:33:53;19.23;;;9.88;;
15970;SDS011;59785;52.582;13.892;2022-12-07T03:36:43;18.55;;;10.35;;
15970;SDS011;59785;52.582;13.892;2022-12-07T03:42:07;18.98;;;10.35;;
15970;SDS011;59785;52.582;13.892;2022-12-07T03:44:36;15.73;;;9.35;;
15970;SDS011;59785;52.582;13.892;2022-12-07T03:47:05;18.13;;;10.23;;
15970;SDS011;59785;52.582;13.892;2022-12-07T03:49:39;15.48;;;9.50;;
15970;SDS011;59785;52.582;13.892;2022-12-07T03:52:10;17.35;;;10.68;;
15970;SDS011;59785;52.582;13.892;2022-12-07T03:54:51;17.48;;;9.70;;
15970;SDS011;59785;52.582;13.892;2022-12-07T03:57:24;14.85;;;8.70;;
15970;SDS011;59785;52.582;13.892;2022-12-07T03:59:53;16.50;;;9.98;;
15970;SDS011;59785;52.582;13.892;2022-12-07T22:08:47;12.63;;;6.15;;
15970;SDS011;59785;52.582;13.892;2022-12-07T22:11:14;11.75;;;5.80;;
15970;SDS011;59785;52.582;13.892;2022-12-07T22:13:40;8.98;;;6.13;;
15970;SDS011;59785;52.582;13.892;2022-12-07T22:16:34;18.23;;;7.00;;
15970;SDS011;59785;52.582;13.892;2022-12-07T22:19:00;16.33;;;6.85;;
15970;SDS011;59785;52.582;13.892;2022-12-07T22:21:28;12.65;;;7.35;;
15970;SDS011;59785;52.582;13.892;2022-12-07T22:23:54;14.57;;;7.32;;
15970;SDS011;59785;52.582;13.892;2022-12-07T22:26:20;11.50;;;6.95;;
15970;SDS011;59785;52.582;13.892;2022-12-07T22:28:49;11.35;;;7.28;;
15970;SDS011;59785;52.582;13.892;2022-12-07T22:31:16;11.73;;;7.53;;
15970;SDS011;59785;52.582;13.892;2022-12-07T22:33:43;16.33;;;8.13;;
15970;SDS011;59785;52.582;13.892;2022-12-07T22:36:09;18.73;;;8.70;;
15970;SDS011;59785;52.582;13.892;2022-12-07T22:38:36;16.98;;;8.02;;
15970;SDS011;59785;52.582;13.892;2022-12-07T22:41:38;14.00;;;8.10;;
15970;SDS011;59785;52.582;13.892;2022-12-07T22:43:57;18.40;;;8.57;;
15970;SDS011;59785;52.582;13.892;2022-12-07T22:46:24;20.20;;;8.77;;
15970;SDS011;59785;52.582;13.892;2022-12-07T22:48:51;15.45;;;8.48;;
15970;SDS011;59785;52.582;13.892;2022-12-07T22:51:28;24.23;;;9.32;;
15970;SDS011;59785;52.582;13.892;2022-12-07T22:53:59;16.75;;;8.88;;
15970;SDS011;59785;52.582;13.892;2022-12-07T22:56:27;19.10;;;8.55;;
15970;SDS011;59785;52.582;13.892;2022-12-07T22:58:55;17.52;;;8.20;;
15970;SDS011;59785;52.582;13.892;2022-12-07T23:01:22;16.13;;;8.55;;
15970;SDS011;59785;52.582;13.892;2022-12-07T23:03:49;21.45;;;8.60;;
15970;SDS011;59785;52.582;13.892;2022-12-07T23:06:17;15.77;;;8.18;;
15970;SDS011;59785;52.582;13.892;2022-12-07T23:08:48;17.73;;;9.63;;
15970;SDS011;59785;52.582;13.892;2022-12-07T23:11:16;13.48;;;8.32;;
15970;SDS011;59785;52.582;13.892;2022-12-07T23:14:04;25.15;;;9.60;;
15970;SDS011;59785;52.582;13.892;2022-12-07T23:16:37;16.73;;;9.02;;
15970;SDS011;59785;52.582;13.892;2022-12-07T23:19:04;16.70;;;9.38;;
15970;SDS011;59785;52.582;13.892;2022-12-07T23:21:30;17.27;;;8.07;;
15970;SDS011;59785;52.582;13.892;2022-12-07T23:23:56;20.08;;;8.57;;
15970;SDS011;59785;52.582;13.892;2022-12-07T23:26:22;22.27;;;9.98;;
15970;SDS011;59785;52.582;13.892;2022-12-07T23:28:49;17.67;;;9.23;;
15970;SDS011;59785;52.582;13.892;2022-12-07T23:31:15;15.82;;;8.55;;
15970;SDS011;59785;52.582;13.892;2022-12-07T23:33:43;14.38;;;8.77;;
15970;SDS011;59785;52.582;13.892;2022-12-07T23:36:12;19.80;;;9.00;;
15970;SDS011;59785;52.582;13.892;2022-12-07T23:38:40;17.92;;;9.18;;
15970;SDS011;59785;52.582;13.892;2022-12-07T23:41:08;21.60;;;9.30;;
15970;SDS011;59785;52.582;13.892;2022-12-07T23:43:36;17.05;;;9.10;;
15970;SDS011;59785;52.582;13.892;2022-12-07T23:46:06;16.50;;;8.57;;
15970;SDS011;59785;52.582;13.892;2022-12-07T23:48:36;17.02;;;9.68;;
15970;SDS011;59785;52.582;13.892;2022-12-07T23:51:03;19.42;;;10.38;;
15970;SDS011;59785;52.582;13.892;2022-12-07T23:53:42;16.98;;;8.70;;
15970;SDS011;59785;52.582;13.892;2022-12-07T23:56:13;24.77;;;9.40;;
15970;SDS011;59785;52.582;13.892;2022-12-07T23:58:45;17.60;;;9.55;;
